sensor_id;sensor_type;location;lat;lon;timestamp;temperature;humidity
61392;DHT22;47261;52.892;5.738;2022-10-26T00:00:48;11.90;96.40
61392;DHT22;47261;52.892;5.738;2022-10-26T00:03:14;11.90;96.50
61392;DHT22;47261;52.892;5.738;2022-10-26T00:05:40;11.80;96.40
61392;DHT22;47261;52.892;5.738;2022-10-26T00:08:07;11.80;96.40
61392;DHT22;47261;52.892;5.738;2022-10-26T00:10:34;11.80;96.40
61392;DHT22;47261;52.892;5.738;2022-10-26T00:13:00;11.70;96.40
61392;DHT22;47261;52.892;5.738;2022-10-26T00:15:26;11.70;96.40
61392;DHT22;47261;52.892;5.738;2022-10-26T00:17:52;11.70;96.40
61392;DHT22;47261;52.892;5.738;2022-10-26T00:20:18;11.70;96.40
61392;DHT22;47261;52.892;5.738;2022-10-26T00:22:43;11.70;96.40
61392;DHT22;47261;52.892;5.738;2022-10-26T00:25:09;11.70;96.50
61392;DHT22;47261;52.892;5.738;2022-10-26T00:27:34;11.70;96.50
61392;DHT22;47261;52.892;5.738;2022-10-26T00:30:04;11.70;96.50
61392;DHT22;47261;52.892;5.738;2022-10-26T00:32:31;11.60;96.50
61392;DHT22;47261;52.892;5.738;2022-10-26T00:34:56;11.60;96.50
61392;DHT22;47261;52.892;5.738;2022-10-26T00:37:22;11.60;96.50
61392;DHT22;47261;52.892;5.738;2022-10-26T00:39:48;11.60;96.50
61392;DHT22;47261;52.892;5.738;2022-10-26T00:42:18;11.60;96.80
61392;DHT22;47261;52.892;5.738;2022-10-26T00:49:48;11.50;96.40
61392;DHT22;47261;52.892;5.738;2022-10-26T00:52:17;11.50;96.50
61392;DHT22;47261;52.892;5.738;2022-10-26T00:54:44;11.50;96.50
61392;DHT22;47261;52.892;5.738;2022-10-26T00:57:11;11.50;96.50
61392;DHT22;47261;52.892;5.738;2022-10-26T00:59:39;11.50;96.50
61392;DHT22;47261;52.892;5.738;2022-10-26T01:02:05;11.50;96.50
61392;DHT22;47261;52.892;5.738;2022-10-26T01:04:32;11.40;96.50
61392;DHT22;47261;52.892;5.738;2022-10-26T01:06:59;11.40;96.50
61392;DHT22;47261;52.892;5.738;2022-10-26T01:09:25;11.40;96.50
61392;DHT22;47261;52.892;5.738;2022-10-26T01:11:51;11.40;96.50
61392;DHT22;47261;52.892;5.738;2022-10-26T01:14:17;11.40;96.60
61392;DHT22;47261;52.892;5.738;2022-10-26T01:17:25;11.40;96.60
61392;DHT22;47261;52.892;5.738;2022-10-26T01:27:48;11.30;96.50
61392;DHT22;47261;52.892;5.738;2022-10-26T01:32:50;11.20;96.40
61392;DHT22;47261;52.892;5.738;2022-10-26T01:38:20;11.20;96.50
61392;DHT22;47261;52.892;5.738;2022-10-26T01:43:54;11.10;96.60
61392;DHT22;47261;52.892;5.738;2022-10-26T01:46:22;11.10;96.60
61392;DHT22;47261;52.892;5.738;2022-10-26T01:48:51;11.10;96.60
61392;DHT22;47261;52.892;5.738;2022-10-26T01:51:20;11.10;96.60
61392;DHT22;47261;52.892;5.738;2022-10-26T01:53:46;11.10;96.70
61392;DHT22;47261;52.892;5.738;2022-10-26T01:56:23;11.10;96.70
61392;DHT22;47261;52.892;5.738;2022-10-26T02:01:43;11.10;96.70
61392;DHT22;47261;52.892;5.738;2022-10-26T02:15:06;11.10;96.80
61392;DHT22;47261;52.892;5.738;2022-10-26T02:18:06;11.10;96.80
61392;DHT22;47261;52.892;5.738;2022-10-26T02:20:39;11.10;96.80
61392;DHT22;47261;52.892;5.738;2022-10-26T02:23:07;11.10;96.80
61392;DHT22;47261;52.892;5.738;2022-10-26T02:25:38;11.10;96.80
61392;DHT22;47261;52.892;5.738;2022-10-26T02:28:12;11.10;96.80
61392;DHT22;47261;52.892;5.738;2022-10-26T02:30:40;11.10;96.90
61392;DHT22;47261;52.892;5.738;2022-10-26T02:33:07;11.20;96.90
61392;DHT22;47261;52.892;5.738;2022-10-26T02:35:36;11.20;96.90
61392;DHT22;47261;52.892;5.738;2022-10-26T02:38:08;11.20;96.90
61392;DHT22;47261;52.892;5.738;2022-10-26T02:40:36;11.30;97.00
61392;DHT22;47261;52.892;5.738;2022-10-26T02:43:05;11.30;97.00
61392;DHT22;47261;52.892;5.738;2022-10-26T02:45:36;11.30;97.00
61392;DHT22;47261;52.892;5.738;2022-10-26T02:48:04;11.30;97.00
61392;DHT22;47261;52.892;5.738;2022-10-26T02:50:51;11.30;97.00
61392;DHT22;47261;52.892;5.738;2022-10-26T02:53:48;11.40;97.10
61392;DHT22;47261;52.892;5.738;2022-10-26T02:56:23;11.40;97.10
61392;DHT22;47261;52.892;5.738;2022-10-26T02:58:58;11.40;97.10
61392;DHT22;47261;52.892;5.738;2022-10-26T03:01:27;11.40;97.10
61392;DHT22;47261;52.892;5.738;2022-10-26T03:03:56;11.50;97.10
61392;DHT22;47261;52.892;5.738;2022-10-26T03:06:23;11.50;97.10
61392;DHT22;47261;52.892;5.738;2022-10-26T03:08:49;11.50;97.00
61392;DHT22;47261;52.892;5.738;2022-10-26T03:11:15;11.50;97.00
61392;DHT22;47261;52.892;5.738;2022-10-26T03:13:41;11.50;97.00
61392;DHT22;47261;52.892;5.738;2022-10-26T03:16:07;11.50;97.00
61392;DHT22;47261;52.892;5.738;2022-10-26T03:18:33;11.50;97.00
61392;DHT22;47261;52.892;5.738;2022-10-26T03:20:59;11.50;97.00
61392;DHT22;47261;52.892;5.738;2022-10-26T03:23:24;11.50;97.00
61392;DHT22;47261;52.892;5.738;2022-10-26T03:25:50;11.50;96.90
61392;DHT22;47261;52.892;5.738;2022-10-26T03:28:16;11.50;96.90
61392;DHT22;47261;52.892;5.738;2022-10-26T03:30:41;11.50;96.90
61392;DHT22;47261;52.892;5.738;2022-10-26T03:33:07;11.50;96.90
61392;DHT22;47261;52.892;5.738;2022-10-26T03:35:33;11.50;96.90
61392;DHT22;47261;52.892;5.738;2022-10-26T03:37:58;11.50;96.90
61392;DHT22;47261;52.892;5.738;2022-10-26T03:40:24;11.50;96.90
61392;DHT22;47261;52.892;5.738;2022-10-26T03:42:49;11.50;96.90
61392;DHT22;47261;52.892;5.738;2022-10-26T03:45:15;11.50;96.90
61392;DHT22;47261;52.892;5.738;2022-10-26T03:47:45;11.50;96.90
61392;DHT22;47261;52.892;5.738;2022-10-26T03:50:12;11.60;97.00
61392;DHT22;47261;52.892;5.738;2022-10-26T03:52:38;11.60;96.90
61392;DHT22;47261;52.892;5.738;2022-10-26T03:55:04;11.60;96.90
61392;DHT22;47261;52.892;5.738;2022-10-26T03:57:30;11.60;97.00
61392;DHT22;47261;52.892;5.738;2022-10-26T03:59:56;11.60;96.90
61392;DHT22;47261;52.892;5.738;2022-10-26T04:02:21;11.60;96.90
61392;DHT22;47261;52.892;5.738;2022-10-26T04:04:47;11.60;96.90
61392;DHT22;47261;52.892;5.738;2022-10-26T04:07:13;11.60;96.90
61392;DHT22;47261;52.892;5.738;2022-10-26T04:09:38;11.70;97.00
61392;DHT22;47261;52.892;5.738;2022-10-26T04:12:04;11.70;96.90
61392;DHT22;47261;52.892;5.738;2022-10-26T04:14:30;11.70;97.00
61392;DHT22;47261;52.892;5.738;2022-10-26T04:16:55;11.70;97.00
61392;DHT22;47261;52.892;5.738;2022-10-26T04:19:21;11.70;97.00
61392;DHT22;47261;52.892;5.738;2022-10-26T04:21:46;11.70;97.00
61392;DHT22;47261;52.892;5.738;2022-10-26T04:24:12;11.70;97.00
61392;DHT22;47261;52.892;5.738;2022-10-26T04:26:38;11.70;97.00
61392;DHT22;47261;52.892;5.738;2022-10-26T04:29:03;11.70;97.00
61392;DHT22;47261;52.892;5.738;2022-10-26T04:31:31;11.80;97.10
61392;DHT22;47261;52.892;5.738;2022-10-26T04:33:57;11.80;97.10
61392;DHT22;47261;52.892;5.738;2022-10-26T04:36:23;11.80;97.00
61392;DHT22;47261;52.892;5.738;2022-10-26T04:38:48;11.80;97.10
61392;DHT22;47261;52.892;5.738;2022-10-26T04:41:14;11.80;97.10
61392;DHT22;47261;52.892;5.738;2022-10-26T04:43:40;11.80;97.10
61392;DHT22;47261;52.892;5.738;2022-10-26T04:46:06;11.80;97.10
61392;DHT22;47261;52.892;5.738;2022-10-26T04:48:31;11.90;97.10
61392;DHT22;47261;52.892;5.738;2022-10-26T04:50:58;11.90;97.40
61392;DHT22;47261;52.892;5.738;2022-10-26T04:53:24;11.90;97.20
61392;DHT22;47261;52.892;5.738;2022-10-26T04:55:58;11.90;97.20
61392;DHT22;47261;52.892;5.738;2022-10-26T04:58:24;11.90;97.20
61392;DHT22;47261;52.892;5.738;2022-10-26T05:00:50;12.00;97.20
61392;DHT22;47261;52.892;5.738;2022-10-26T05:03:16;12.00;97.20
61392;DHT22;47261;52.892;5.738;2022-10-26T05:05:41;12.00;97.30
61392;DHT22;47261;52.892;5.738;2022-10-26T05:08:07;12.00;97.20
61392;DHT22;47261;52.892;5.738;2022-10-26T05:10:33;12.00;97.30
61392;DHT22;47261;52.892;5.738;2022-10-26T05:13:00;12.10;97.30
61392;DHT22;47261;52.892;5.738;2022-10-26T05:15:27;12.10;97.20
61392;DHT22;47261;52.892;5.738;2022-10-26T05:18:01;12.10;97.20
61392;DHT22;47261;52.892;5.738;2022-10-26T05:20:29;12.10;97.20
61392;DHT22;47261;52.892;5.738;2022-10-26T05:23:04;12.10;97.30
61392;DHT22;47261;52.892;5.738;2022-10-26T05:25:32;12.20;97.10
61392;DHT22;47261;52.892;5.738;2022-10-26T05:27:59;12.10;97.10
61392;DHT22;47261;52.892;5.738;2022-10-26T05:30:26;12.10;97.10
61392;DHT22;47261;52.892;5.738;2022-10-26T05:32:56;12.20;97.10
61392;DHT22;47261;52.892;5.738;2022-10-26T05:35:22;12.10;97.10
61392;DHT22;47261;52.892;5.738;2022-10-26T05:37:47;12.10;97.10
61392;DHT22;47261;52.892;5.738;2022-10-26T05:40:13;12.10;97.10
61392;DHT22;47261;52.892;5.738;2022-10-26T05:42:39;12.10;97.10
61392;DHT22;47261;52.892;5.738;2022-10-26T05:45:05;12.10;97.10
61392;DHT22;47261;52.892;5.738;2022-10-26T05:47:31;12.10;97.10
61392;DHT22;47261;52.892;5.738;2022-10-26T05:49:57;12.10;97.10
61392;DHT22;47261;52.892;5.738;2022-10-26T05:52:22;12.10;97.10
61392;DHT22;47261;52.892;5.738;2022-10-26T05:54:48;12.20;97.10
61392;DHT22;47261;52.892;5.738;2022-10-26T05:57:14;12.20;97.10
61392;DHT22;47261;52.892;5.738;2022-10-26T05:59:39;12.10;97.10
61392;DHT22;47261;52.892;5.738;2022-10-26T06:04:43;12.20;97.10
61392;DHT22;47261;52.892;5.738;2022-10-26T06:07:21;12.20;97.10
61392;DHT22;47261;52.892;5.738;2022-10-26T06:09:47;12.10;97.10
61392;DHT22;47261;52.892;5.738;2022-10-26T06:12:13;12.20;97.10
61392;DHT22;47261;52.892;5.738;2022-10-26T06:14:40;12.20;97.00
61392;DHT22;47261;52.892;5.738;2022-10-26T06:17:23;12.20;97.00
61392;DHT22;47261;52.892;5.738;2022-10-26T06:25:59;12.20;97.10
61392;DHT22;47261;52.892;5.738;2022-10-26T06:31:19;12.20;97.10
61392;DHT22;47261;52.892;5.738;2022-10-26T06:33:44;12.20;97.10
61392;DHT22;47261;52.892;5.738;2022-10-26T06:36:22;12.20;97.10
61392;DHT22;47261;52.892;5.738;2022-10-26T06:38:53;12.30;97.20
61392;DHT22;47261;52.892;5.738;2022-10-26T06:41:20;12.30;97.10
61392;DHT22;47261;52.892;5.738;2022-10-26T06:43:47;12.30;97.10
61392;DHT22;47261;52.892;5.738;2022-10-26T06:49:08;12.30;97.20
61392;DHT22;47261;52.892;5.738;2022-10-26T06:52:02;12.30;97.20
61392;DHT22;47261;52.892;5.738;2022-10-26T06:54:46;12.30;97.20
61392;DHT22;47261;52.892;5.738;2022-10-26T06:57:14;12.40;97.20
61392;DHT22;47261;52.892;5.738;2022-10-26T07:02:11;12.40;97.20
61392;DHT22;47261;52.892;5.738;2022-10-26T07:04:36;12.40;97.20
61392;DHT22;47261;52.892;5.738;2022-10-26T07:07:02;12.40;97.20
61392;DHT22;47261;52.892;5.738;2022-10-26T07:09:28;12.50;97.20
61392;DHT22;47261;52.892;5.738;2022-10-26T07:11:53;12.50;97.20
61392;DHT22;47261;52.892;5.738;2022-10-26T07:14:19;12.50;97.10
61392;DHT22;47261;52.892;5.738;2022-10-26T07:16:45;12.60;97.10
61392;DHT22;47261;52.892;5.738;2022-10-26T07:19:10;12.60;97.10
61392;DHT22;47261;52.892;5.738;2022-10-26T07:21:36;12.60;97.10
61392;DHT22;47261;52.892;5.738;2022-10-26T07:24:02;12.60;97.10
61392;DHT22;47261;52.892;5.738;2022-10-26T07:26:27;12.60;97.10
61392;DHT22;47261;52.892;5.738;2022-10-26T07:28:53;12.60;97.10
61392;DHT22;47261;52.892;5.738;2022-10-26T07:31:18;12.70;97.10
61392;DHT22;47261;52.892;5.738;2022-10-26T07:33:44;12.60;97.00
61392;DHT22;47261;52.892;5.738;2022-10-26T07:36:11;12.70;97.00
61392;DHT22;47261;52.892;5.738;2022-10-26T07:38:37;12.70;97.00
61392;DHT22;47261;52.892;5.738;2022-10-26T07:41:03;12.70;97.00
61392;DHT22;47261;52.892;5.738;2022-10-26T07:43:29;12.70;97.00
61392;DHT22;47261;52.892;5.738;2022-10-26T07:45:55;12.80;97.00
61392;DHT22;47261;52.892;5.738;2022-10-26T07:48:20;12.80;97.00
61392;DHT22;47261;52.892;5.738;2022-10-26T07:50:46;12.90;97.10
61392;DHT22;47261;52.892;5.738;2022-10-26T07:53:12;13.00;97.10
61392;DHT22;47261;52.892;5.738;2022-10-26T07:55:37;13.00;97.10
61392;DHT22;47261;52.892;5.738;2022-10-26T07:58:03;13.10;97.20
61392;DHT22;47261;52.892;5.738;2022-10-26T08:00:29;13.20;97.20
61392;DHT22;47261;52.892;5.738;2022-10-26T08:02:55;13.30;97.20
61392;DHT22;47261;52.892;5.738;2022-10-26T08:05:21;13.30;97.10
61392;DHT22;47261;52.892;5.738;2022-10-26T08:07:47;13.40;97.10
61392;DHT22;47261;52.892;5.738;2022-10-26T08:10:13;13.50;97.10
61392;DHT22;47261;52.892;5.738;2022-10-26T08:12:40;13.60;97.10
61392;DHT22;47261;52.892;5.738;2022-10-26T08:15:06;13.70;97.10
61392;DHT22;47261;52.892;5.738;2022-10-26T08:17:32;13.90;97.00
61392;DHT22;47261;52.892;5.738;2022-10-26T08:19:58;14.00;96.90
61392;DHT22;47261;52.892;5.738;2022-10-26T08:22:23;14.00;96.80
61392;DHT22;47261;52.892;5.738;2022-10-26T08:24:49;14.10;96.70
61392;DHT22;47261;52.892;5.738;2022-10-26T08:27:15;14.20;96.70
61392;DHT22;47261;52.892;5.738;2022-10-26T08:29:41;14.30;96.70
61392;DHT22;47261;52.892;5.738;2022-10-26T08:32:06;14.30;96.70
61392;DHT22;47261;52.892;5.738;2022-10-26T08:34:32;14.50;97.00
61392;DHT22;47261;52.892;5.738;2022-10-26T08:36:58;14.50;96.60
61392;DHT22;47261;52.892;5.738;2022-10-26T08:39:24;14.60;96.50
61392;DHT22;47261;52.892;5.738;2022-10-26T08:42:12;14.60;96.40
61392;DHT22;47261;52.892;5.738;2022-10-26T08:44:45;14.80;96.50
61392;DHT22;47261;52.892;5.738;2022-10-26T08:47:34;14.90;96.50
61392;DHT22;47261;52.892;5.738;2022-10-26T08:50:09;15.10;96.30
61392;DHT22;47261;52.892;5.738;2022-10-26T08:52:47;15.20;96.10
61392;DHT22;47261;52.892;5.738;2022-10-26T08:55:30;15.30;95.70
61392;DHT22;47261;52.892;5.738;2022-10-26T08:58:00;15.30;95.30
61392;DHT22;47261;52.892;5.738;2022-10-26T09:00:29;15.40;95.10
61392;DHT22;47261;52.892;5.738;2022-10-26T09:02:55;15.40;95.00
61392;DHT22;47261;52.892;5.738;2022-10-26T09:05:54;15.40;94.90
61392;DHT22;47261;52.892;5.738;2022-10-26T09:11:35;15.40;94.80
61392;DHT22;47261;52.892;5.738;2022-10-26T09:14:18;15.40;94.80
61392;DHT22;47261;52.892;5.738;2022-10-26T09:22:21;15.50;94.90
61392;DHT22;47261;52.892;5.738;2022-10-26T09:24:53;15.60;94.90
61392;DHT22;47261;52.892;5.738;2022-10-26T09:29:49;15.80;94.80
61392;DHT22;47261;52.892;5.738;2022-10-26T09:33:03;15.90;94.80
61392;DHT22;47261;52.892;5.738;2022-10-26T09:35:22;15.90;94.80
61392;DHT22;47261;52.892;5.738;2022-10-26T09:38:24;16.10;94.80
61392;DHT22;47261;52.892;5.738;2022-10-26T09:40:45;16.20;95.10
61392;DHT22;47261;52.892;5.738;2022-10-26T09:43:19;16.30;94.60
61392;DHT22;47261;52.892;5.738;2022-10-26T09:45:50;16.40;94.50
61392;DHT22;47261;52.892;5.738;2022-10-26T09:48:40;16.50;94.20
61392;DHT22;47261;52.892;5.738;2022-10-26T09:51:07;16.50;94.00
61392;DHT22;47261;52.892;5.738;2022-10-26T09:53:33;16.70;94.00
61392;DHT22;47261;52.892;5.738;2022-10-26T09:58:29;16.80;93.40
61392;DHT22;47261;52.892;5.738;2022-10-26T10:00:56;16.80;93.40
61392;DHT22;47261;52.892;5.738;2022-10-26T10:03:29;16.90;93.40
61392;DHT22;47261;52.892;5.738;2022-10-26T10:08:40;17.10;93.30
61392;DHT22;47261;52.892;5.738;2022-10-26T10:11:08;17.10;93.10
61392;DHT22;47261;52.892;5.738;2022-10-26T10:13:41;17.20;92.90
61392;DHT22;47261;52.892;5.738;2022-10-26T10:16:11;17.30;92.90
61392;DHT22;47261;52.892;5.738;2022-10-26T10:18:39;17.40;92.50
61392;DHT22;47261;52.892;5.738;2022-10-26T10:21:06;17.60;92.60
61392;DHT22;47261;52.892;5.738;2022-10-26T10:23:36;17.70;92.70
61392;DHT22;47261;52.892;5.738;2022-10-26T10:26:07;17.70;92.60
61392;DHT22;47261;52.892;5.738;2022-10-26T10:28:36;17.80;92.40
61392;DHT22;47261;52.892;5.738;2022-10-26T10:31:20;17.90;92.20
61392;DHT22;47261;52.892;5.738;2022-10-26T10:33:46;18.00;92.00
61392;DHT22;47261;52.892;5.738;2022-10-26T10:36:22;18.10;91.50
61392;DHT22;47261;52.892;5.738;2022-10-26T10:38:50;18.10;91.30
61392;DHT22;47261;52.892;5.738;2022-10-26T10:41:31;18.10;91.50
61392;DHT22;47261;52.892;5.738;2022-10-26T10:44:21;18.20;91.30
61392;DHT22;47261;52.892;5.738;2022-10-26T10:46:48;18.20;91.40
61392;DHT22;47261;52.892;5.738;2022-10-26T10:49:24;18.20;91.50
61392;DHT22;47261;52.892;5.738;2022-10-26T10:51:50;18.30;90.80
61392;DHT22;47261;52.892;5.738;2022-10-26T10:54:36;18.20;90.90
61392;DHT22;47261;52.892;5.738;2022-10-26T10:57:18;18.20;91.10
61392;DHT22;47261;52.892;5.738;2022-10-26T11:00:07;18.20;90.80
61392;DHT22;47261;52.892;5.738;2022-10-26T11:05:18;18.20;91.00
61392;DHT22;47261;52.892;5.738;2022-10-26T11:08:48;18.30;91.00
61392;DHT22;47261;52.892;5.738;2022-10-26T11:14:28;18.40;90.80
61392;DHT22;47261;52.892;5.738;2022-10-26T11:17:17;18.40;90.50
61392;DHT22;47261;52.892;5.738;2022-10-26T11:19:50;18.40;90.60
61392;DHT22;47261;52.892;5.738;2022-10-26T11:22:25;18.50;90.60
61392;DHT22;47261;52.892;5.738;2022-10-26T11:25:15;18.50;90.30
61392;DHT22;47261;52.892;5.738;2022-10-26T11:27:50;18.50;90.20
61392;DHT22;47261;52.892;5.738;2022-10-26T11:30:19;18.50;90.00
61392;DHT22;47261;52.892;5.738;2022-10-26T11:32:55;18.50;90.20
61392;DHT22;47261;52.892;5.738;2022-10-26T11:35:55;18.50;90.50
61392;DHT22;47261;52.892;5.738;2022-10-26T11:41:04;18.50;90.30
61392;DHT22;47261;52.892;5.738;2022-10-26T11:46:39;18.60;90.50
61392;DHT22;47261;52.892;5.738;2022-10-26T11:49:23;18.60;90.40
61392;DHT22;47261;52.892;5.738;2022-10-26T11:52:18;18.60;90.30
61392;DHT22;47261;52.892;5.738;2022-10-26T11:54:48;18.60;90.50
61392;DHT22;47261;52.892;5.738;2022-10-26T11:57:18;18.60;90.40
61392;DHT22;47261;52.892;5.738;2022-10-26T11:59:49;18.60;90.70
61392;DHT22;47261;52.892;5.738;2022-10-26T12:02:22;18.60;90.70
61392;DHT22;47261;52.892;5.738;2022-10-26T12:07:39;18.50;90.80
61392;DHT22;47261;52.892;5.738;2022-10-26T12:10:18;18.50;91.00
61392;DHT22;47261;52.892;5.738;2022-10-26T12:15:33;18.60;91.20
61392;DHT22;47261;52.892;5.738;2022-10-26T12:18:12;18.70;91.10
61392;DHT22;47261;52.892;5.738;2022-10-26T12:23:11;18.80;90.80
61392;DHT22;47261;52.892;5.738;2022-10-26T12:25:37;18.80;90.90
61392;DHT22;47261;52.892;5.738;2022-10-26T12:28:03;18.80;90.70
61392;DHT22;47261;52.892;5.738;2022-10-26T12:30:31;18.80;91.00
61392;DHT22;47261;52.892;5.738;2022-10-26T12:33:01;18.80;90.90
61392;DHT22;47261;52.892;5.738;2022-10-26T12:35:36;18.80;91.10
61392;DHT22;47261;52.892;5.738;2022-10-26T12:59:12;19.20;90.80
61392;DHT22;47261;52.892;5.738;2022-10-26T13:07:25;19.10;90.90
61392;DHT22;47261;52.892;5.738;2022-10-26T13:10:04;19.10;91.00
61392;DHT22;47261;52.892;5.738;2022-10-26T13:12:55;19.10;91.10
61392;DHT22;47261;52.892;5.738;2022-10-26T13:17:57;19.10;90.90
61392;DHT22;47261;52.892;5.738;2022-10-26T13:20:23;19.10;91.00
61392;DHT22;47261;52.892;5.738;2022-10-26T13:22:49;19.20;91.10
61392;DHT22;47261;52.892;5.738;2022-10-26T13:25:26;19.20;90.80
61392;DHT22;47261;52.892;5.738;2022-10-26T13:30:51;19.20;90.80
61392;DHT22;47261;52.892;5.738;2022-10-26T13:33:21;19.20;90.60
61392;DHT22;47261;52.892;5.738;2022-10-26T13:35:49;19.20;90.80
61392;DHT22;47261;52.892;5.738;2022-10-26T13:38:19;19.20;90.90
61392;DHT22;47261;52.892;5.738;2022-10-26T13:40:46;19.20;90.70
61392;DHT22;47261;52.892;5.738;2022-10-26T13:43:21;19.20;90.70
61392;DHT22;47261;52.892;5.738;2022-10-26T13:45:59;19.20;90.60
61392;DHT22;47261;52.892;5.738;2022-10-26T13:48:35;19.20;90.50
61392;DHT22;47261;52.892;5.738;2022-10-26T13:51:12;19.10;90.60
61392;DHT22;47261;52.892;5.738;2022-10-26T13:53:44;19.10;90.90
61392;DHT22;47261;52.892;5.738;2022-10-26T13:59:02;19.10;90.70
61392;DHT22;47261;52.892;5.738;2022-10-26T14:01:30;19.10;90.60
61392;DHT22;47261;52.892;5.738;2022-10-26T14:03:55;19.10;90.70
61392;DHT22;47261;52.892;5.738;2022-10-26T14:06:34;19.10;90.70
61392;DHT22;47261;52.892;5.738;2022-10-26T14:09:10;19.10;90.90
61392;DHT22;47261;52.892;5.738;2022-10-26T14:11:43;19.00;90.70
61392;DHT22;47261;52.892;5.738;2022-10-26T14:14:19;18.90;90.60
61392;DHT22;47261;52.892;5.738;2022-10-26T14:16:47;18.90;90.60
61392;DHT22;47261;52.892;5.738;2022-10-26T14:19:21;18.80;90.80
61392;DHT22;47261;52.892;5.738;2022-10-26T14:21:48;18.80;91.00
61392;DHT22;47261;52.892;5.738;2022-10-26T14:24:23;18.70;91.10
61392;DHT22;47261;52.892;5.738;2022-10-26T14:26:48;18.70;91.20
61392;DHT22;47261;52.892;5.738;2022-10-26T14:29:25;18.60;91.20
61392;DHT22;47261;52.892;5.738;2022-10-26T14:31:52;18.60;91.30
61392;DHT22;47261;52.892;5.738;2022-10-26T14:34:19;18.60;91.40
61392;DHT22;47261;52.892;5.738;2022-10-26T14:36:53;18.50;91.50
61392;DHT22;47261;52.892;5.738;2022-10-26T14:39:33;18.40;91.60
61392;DHT22;47261;52.892;5.738;2022-10-26T14:42:02;18.40;91.70
61392;DHT22;47261;52.892;5.738;2022-10-26T14:44:35;18.40;91.80
61392;DHT22;47261;52.892;5.738;2022-10-26T14:47:02;18.40;91.90
61392;DHT22;47261;52.892;5.738;2022-10-26T14:49:28;18.30;91.90
61392;DHT22;47261;52.892;5.738;2022-10-26T14:51:58;18.30;92.00
61392;DHT22;47261;52.892;5.738;2022-10-26T14:54:26;18.30;92.10
61392;DHT22;47261;52.892;5.738;2022-10-26T14:56:53;18.30;92.10
61392;DHT22;47261;52.892;5.738;2022-10-26T14:59:31;18.30;92.20
61392;DHT22;47261;52.892;5.738;2022-10-26T15:02:10;18.20;92.20
61392;DHT22;47261;52.892;5.738;2022-10-26T15:04:41;18.20;92.30
61392;DHT22;47261;52.892;5.738;2022-10-26T15:07:19;18.20;92.30
61392;DHT22;47261;52.892;5.738;2022-10-26T15:09:52;18.20;92.40
61392;DHT22;47261;52.892;5.738;2022-10-26T15:12:33;18.20;92.70
61392;DHT22;47261;52.892;5.738;2022-10-26T15:17:55;18.10;92.60
61392;DHT22;47261;52.892;5.738;2022-10-26T15:20:23;18.10;92.60
61392;DHT22;47261;52.892;5.738;2022-10-26T15:22:57;18.10;92.70
61392;DHT22;47261;52.892;5.738;2022-10-26T15:25:29;18.10;92.70
61392;DHT22;47261;52.892;5.738;2022-10-26T15:28:24;18.10;92.70
61392;DHT22;47261;52.892;5.738;2022-10-26T15:33:29;18.10;92.80
61392;DHT22;47261;52.892;5.738;2022-10-26T15:38:33;18.00;92.90
61392;DHT22;47261;52.892;5.738;2022-10-26T15:40:59;18.10;92.90
61392;DHT22;47261;52.892;5.738;2022-10-26T15:43:25;18.10;92.90
61392;DHT22;47261;52.892;5.738;2022-10-26T15:45:51;18.00;93.00
61392;DHT22;47261;52.892;5.738;2022-10-26T15:48:27;18.00;93.00
61392;DHT22;47261;52.892;5.738;2022-10-26T15:50:55;18.00;93.00
61392;DHT22;47261;52.892;5.738;2022-10-26T15:53:23;18.00;93.00
61392;DHT22;47261;52.892;5.738;2022-10-26T15:55:52;18.00;93.00
61392;DHT22;47261;52.892;5.738;2022-10-26T15:58:18;18.00;93.00
61392;DHT22;47261;52.892;5.738;2022-10-26T16:00:44;18.00;93.00
61392;DHT22;47261;52.892;5.738;2022-10-26T16:03:23;18.00;93.00
61392;DHT22;47261;52.892;5.738;2022-10-26T16:06:00;18.00;93.10
61392;DHT22;47261;52.892;5.738;2022-10-26T16:08:28;18.00;93.10
61392;DHT22;47261;52.892;5.738;2022-10-26T16:10:54;18.00;93.10
61392;DHT22;47261;52.892;5.738;2022-10-26T16:13:20;18.00;93.10
61392;DHT22;47261;52.892;5.738;2022-10-26T16:15:46;18.00;93.10
61392;DHT22;47261;52.892;5.738;2022-10-26T16:18:12;18.00;93.10
61392;DHT22;47261;52.892;5.738;2022-10-26T16:20:38;18.00;93.00
61392;DHT22;47261;52.892;5.738;2022-10-26T16:23:04;17.90;93.20
61392;DHT22;47261;52.892;5.738;2022-10-26T16:25:39;17.90;93.00
61392;DHT22;47261;52.892;5.738;2022-10-26T16:28:05;17.90;93.00
61392;DHT22;47261;52.892;5.738;2022-10-26T16:30:30;17.90;93.10
61392;DHT22;47261;52.892;5.738;2022-10-26T16:32:56;17.80;93.00
61392;DHT22;47261;52.892;5.738;2022-10-26T16:35:22;17.80;93.10
61392;DHT22;47261;52.892;5.738;2022-10-26T16:37:48;17.70;93.10
61392;DHT22;47261;52.892;5.738;2022-10-26T16:40:13;17.70;93.20
61392;DHT22;47261;52.892;5.738;2022-10-26T16:42:39;17.60;93.30
61392;DHT22;47261;52.892;5.738;2022-10-26T16:45:11;17.60;93.30
61392;DHT22;47261;52.892;5.738;2022-10-26T16:47:37;17.50;93.40
61392;DHT22;47261;52.892;5.738;2022-10-26T16:50:06;17.50;93.40
61392;DHT22;47261;52.892;5.738;2022-10-26T16:52:33;17.50;93.50
61392;DHT22;47261;52.892;5.738;2022-10-26T16:54:59;17.40;93.60
61392;DHT22;47261;52.892;5.738;2022-10-26T16:57:24;17.40;93.60
61392;DHT22;47261;52.892;5.738;2022-10-26T16:59:50;17.40;93.70
61392;DHT22;47261;52.892;5.738;2022-10-26T17:02:16;17.30;93.70
61392;DHT22;47261;52.892;5.738;2022-10-26T17:04:41;17.30;93.70
61392;DHT22;47261;52.892;5.738;2022-10-26T17:07:07;17.20;93.70
61392;DHT22;47261;52.892;5.738;2022-10-26T17:09:33;17.20;93.80
61392;DHT22;47261;52.892;5.738;2022-10-26T17:11:58;17.20;93.80
61392;DHT22;47261;52.892;5.738;2022-10-26T17:14:24;17.10;93.90
61392;DHT22;47261;52.892;5.738;2022-10-26T17:16:49;17.10;94.20
61392;DHT22;47261;52.892;5.738;2022-10-26T17:19:15;17.00;94.00
61392;DHT22;47261;52.892;5.738;2022-10-26T17:21:41;17.00;94.20
61392;DHT22;47261;52.892;5.738;2022-10-26T17:24:09;17.00;94.30
61392;DHT22;47261;52.892;5.738;2022-10-26T17:26:35;17.00;94.30
61392;DHT22;47261;52.892;5.738;2022-10-26T17:29:01;17.00;94.40
61392;DHT22;47261;52.892;5.738;2022-10-26T17:31:27;17.00;94.40
61392;DHT22;47261;52.892;5.738;2022-10-26T17:33:54;17.00;94.50
61392;DHT22;47261;52.892;5.738;2022-10-26T17:36:21;17.00;94.50
61392;DHT22;47261;52.892;5.738;2022-10-26T17:38:49;17.00;94.50
61392;DHT22;47261;52.892;5.738;2022-10-26T17:41:16;17.00;94.40
61392;DHT22;47261;52.892;5.738;2022-10-26T17:43:44;17.10;94.30
61392;DHT22;47261;52.892;5.738;2022-10-26T17:48:40;17.10;94.20
61392;DHT22;47261;52.892;5.738;2022-10-26T17:51:11;17.10;94.10
61392;DHT22;47261;52.892;5.738;2022-10-26T17:53:38;17.10;94.00
61392;DHT22;47261;52.892;5.738;2022-10-26T17:56:05;17.10;93.90
61392;DHT22;47261;52.892;5.738;2022-10-26T17:58:32;17.10;93.90
61392;DHT22;47261;52.892;5.738;2022-10-26T18:01:03;17.00;93.80